Time;durP1;ratioP1;P1;durP2;ratioP2;P2;SDS_P1;SDS_P2;PMS_P1;PMS_P2;Temp;Humidity;BMP_temperature;BMP_pressure;BME280_temperature;BME280_humidity;BME280_pressure;Samples;Min_cycle;Max_cycle;Signal;HPM_P1;HPM_P2
2023/07/07 00:02:11;;;;;;;4.32;3.95;;;;;;;;;;5109501;28;20237;-83
2023/07/07 00:04:39;;;;;;;4.80;4.28;;;;;;;;;;5109660;28;20209;-82
2023/07/07 00:07:06;;;;;;;6.80;4.35;;;;;;;;;;5109649;28;20289;-84
2023/07/07 00:09:34;;;;;;;9.40;4.05;;;;;;;;;;5109804;28;20220;-83
2023/07/07 00:12:01;;;;;;;4.57;4.15;;;;;;;;;;5108741;28;20229;-84
2023/07/07 00:14:28;;;;;;;4.68;3.95;;;;;;;;;;5109313;28;20258;-83
2023/07/07 00:17:01;;;;;;;3.85;3.55;;;;;;;;;;5109215;28;20198;-83
2023/07/07 00:19:27;;;;;;;5.90;4.18;;;;;;;;;;5111854;28;20708;-84
2023/07/07 00:21:58;;;;;;;4.30;4.00;;;;;;;;;;5129069;28;20729;-84
2023/07/07 00:24:26;;;;;;;4.32;4.05;;;;;;;;;;5129509;28;20216;-83
2023/07/07 00:26:54;;;;;;;4.43;4.03;;;;;;;;;;5129048;28;20228;-83
2023/07/07 00:29:20;;;;;;;3.90;3.60;;;;;;;;;;5111146;28;20742;-84
2023/07/07 00:31:47;;;;;;;4.47;3.88;;;;;;;;;;5109073;28;20291;-84
2023/07/07 00:34:14;;;;;;;4.60;4.22;;;;;;;;;;5109385;28;20206;-84
2023/07/07 00:36:40;;;;;;;4.03;3.60;;;;;;;;;;5109456;28;20197;-83
2023/07/07 00:39:07;;;;;;;3.72;3.42;;;;;;;;;;5109077;28;20190;-85
2023/07/07 00:41:33;;;;;;;4.10;3.53;;;;;;;;;;5111982;28;20738;-84
2023/07/07 00:44:03;;;;;;;3.97;3.58;;;;;;;;;;5112536;28;20238;-83
2023/07/07 00:46:29;;;;;;;4.80;4.00;;;;;;;;;;5113006;28;20197;-84
2023/07/07 00:48:57;;;;;;;4.53;4.13;;;;;;;;;;5112514;28;20730;-84
2023/07/07 00:51:27;;;;;;;5.00;3.40;;;;;;;;;;5112352;28;20303;-84
2023/07/07 00:53:55;;;;;;;3.22;3.03;;;;;;;;;;5112757;28;20217;-84
2023/07/07 00:56:24;;;;;;;3.65;3.35;;;;;;;;;;5111940;28;20628;-84
2023/07/07 00:58:51;;;;;;;3.80;3.50;;;;;;;;;;5111952;28;20268;-84
2023/07/07 01:01:19;;;;;;;4.40;4.00;;;;;;;;;;5112296;28;20669;-85
2023/07/07 01:03:48;;;;;;;4.28;3.90;;;;;;;;;;5112474;28;20322;-84
2023/07/07 01:06:17;;;;;;;5.25;4.10;;;;;;;;;;5112602;28;20578;-84
2023/07/07 01:08:46;;;;;;;4.85;4.30;;;;;;;;;;5116625;28;20553;-85
2023/07/07 01:11:13;;;;;;;5.95;4.60;;;;;;;;;;5112183;28;20197;-83
2023/07/07 01:13:39;;;;;;;4.72;4.32;;;;;;;;;;5112590;28;20233;-85
2023/07/07 01:16:12;;;;;;;5.28;4.80;;;;;;;;;;5112601;28;20270;-84
2023/07/07 01:18:43;;;;;;;7.10;5.07;;;;;;;;;;5112768;28;20646;-84
2023/07/07 01:21:13;;;;;;;12.38;9.45;;;;;;;;;;5112600;28;20209;-83
2023/07/07 01:23:50;;;;;;;5.90;4.97;;;;;;;;;;5111877;28;20587;-84
2023/07/07 01:26:35;;;;;;;5.75;5.13;;;;;;;;;;5111064;28;20181;-85
2023/07/07 01:29:20;;;;;;;5.93;5.43;;;;;;;;;;5111881;28;20568;-85
2023/07/07 01:31:51;;;;;;;5.75;5.20;;;;;;;;;;5111600;28;20266;-84
2023/07/07 01:34:18;;;;;;;5.40;4.97;;;;;;;;;;5111935;28;20212;-84
2023/07/07 01:36:45;;;;;;;5.70;5.10;;;;;;;;;;5112064;28;20201;-83
2023/07/07 01:39:13;;;;;;;6.35;5.63;;;;;;;;;;5114095;28;20193;-85
2023/07/07 01:41:41;;;;;;;7.63;6.55;;;;;;;;;;5115041;28;20221;-83
2023/07/07 01:44:11;;;;;;;6.47;5.82;;;;;;;;;;5116220;28;20201;-84
2023/07/07 01:46:41;;;;;;;6.60;5.22;;;;;;;;;;5120185;28;20193;-83
2023/07/07 01:49:19;;;;;;;6.22;5.63;;;;;;;;;;5115246;28;20239;-84
2023/07/07 01:51:48;;;;;;;5.90;5.32;;;;;;;;;;5116295;28;20220;-84
2023/07/07 01:54:15;;;;;;;5.95;5.20;;;;;;;;;;5112199;28;20548;-84
2023/07/07 01:56:43;;;;;;;6.53;5.70;;;;;;;;;;5112068;28;20194;-84
2023/07/07 01:59:10;;;;;;;7.65;5.65;;;;;;;;;;5111434;28;20196;-85
2023/07/07 02:01:37;;;;;;;8.77;5.78;;;;;;;;;;5110910;28;20265;-83
2023/07/07 02:04:03;;;;;;;7.43;6.47;;;;;;;;;;5111810;28;20205;-83
2023/07/07 02:06:32;;;;;;;8.77;6.32;;;;;;;;;;5111958;28;20272;-85
2023/07/07 02:08:59;;;;;;;7.32;5.97;;;;;;;;;;5111575;28;20266;-83
2023/07/07 02:11:25;;;;;;;7.57;5.70;;;;;;;;;;5110962;28;20218;-84
2023/07/07 02:13:53;;;;;;;6.80;6.10;;;;;;;;;;5110792;28;20657;-84
2023/07/07 02:16:19;;;;;;;7.70;6.20;;;;;;;;;;5109852;28;20567;-84
2023/07/07 02:18:48;;;;;;;6.95;6.28;;;;;;;;;;5111025;28;20205;-84
2023/07/07 02:21:15;;;;;;;11.23;7.15;;;;;;;;;;5110618;28;20240;-83
2023/07/07 02:23:43;;;;;;;10.95;6.55;;;;;;;;;;5110375;28;20681;-84
2023/07/07 02:26:10;;;;;;;7.97;7.18;;;;;;;;;;5110854;28;20205;-83
2023/07/07 02:28:37;;;;;;;7.28;5.40;;;;;;;;;;5110657;28;20235;-86
2023/07/07 02:31:03;;;;;;;8.10;7.00;;;;;;;;;;5110860;28;20201;-83
2023/07/07 02:33:32;;;;;;;8.30;7.40;;;;;;;;;;5110449;28;20709;-83
2023/07/07 02:36:01;;;;;;;7.88;6.32;;;;;;;;;;5110557;28;20198;-83
2023/07/07 02:38:27;;;;;;;7.63;6.78;;;;;;;;;;5110744;28;20219;-84
2023/07/07 02:40:55;;;;;;;10.38;6.57;;;;;;;;;;5110674;28;20193;-84
2023/07/07 02:43:22;;;;;;;10.30;7.57;;;;;;;;;;5110994;28;20597;-84
2023/07/07 02:45:49;;;;;;;7.55;6.63;;;;;;;;;;5110383;28;20281;-83
2023/07/07 02:48:17;;;;;;;6.72;6.05;;;;;;;;;;5110612;28;20197;-84
2023/07/07 02:50:43;;;;;;;9.60;6.68;;;;;;;;;;5110161;28;20661;-83
2023/07/07 02:53:10;;;;;;;8.35;6.95;;;;;;;;;;5110194;28;20239;-83
2023/07/07 02:55:37;;;;;;;10.57;7.20;;;;;;;;;;5110235;28;20197;-84
2023/07/07 02:58:05;;;;;;;10.95;7.43;;;;;;;;;;5109730;28;20221;-85
2023/07/07 03:00:32;;;;;;;9.20;7.72;;;;;;;;;;5109838;28;20634;-83
2023/07/07 03:02:59;;;;;;;11.80;7.70;;;;;;;;;;5109298;28;20286;-84
2023/07/07 03:05:26;;;;;;;9.82;7.85;;;;;;;;;;5110073;28;20692;-86
2023/07/07 03:07:52;;;;;;;10.75;8.15;;;;;;;;;;5116689;28;20290;-84
2023/07/07 03:10:19;;;;;;;9.90;7.57;;;;;;;;;;5134406;28;20220;-83
2023/07/07 03:12:46;;;;;;;9.98;7.95;;;;;;;;;;5123241;28;20228;-84
2023/07/07 03:15:14;;;;;;;11.18;8.02;;;;;;;;;;5111978;28;20198;-84
2023/07/07 03:17:41;;;;;;;8.95;7.30;;;;;;;;;;5110628;28;20225;-85
2023/07/07 03:20:09;;;;;;;10.77;7.53;;;;;;;;;;5109980;28;20216;-84
2023/07/07 03:22:36;;;;;;;10.27;8.00;;;;;;;;;;5110068;28;20197;-84
2023/07/07 03:25:03;;;;;;;9.57;8.13;;;;;;;;;;5109785;28;20665;-83
2023/07/07 03:27:29;;;;;;;9.32;7.03;;;;;;;;;;5109861;28;20200;-84
2023/07/07 03:29:56;;;;;;;10.10;7.75;;;;;;;;;;5109887;28;20193;-84
2023/07/07 03:32:24;;;;;;;9.32;6.88;;;;;;;;;;5110026;28;20248;-84
2023/07/07 03:34:51;;;;;;;10.63;7.63;;;;;;;;;;5109839;28;20194;-83
2023/07/07 03:37:19;;;;;;;8.18;7.30;;;;;;;;;;5109931;28;20198;-84
2023/07/07 03:39:46;;;;;;;12.43;7.95;;;;;;;;;;5109853;28;20208;-85
2023/07/07 03:42:13;;;;;;;8.05;7.25;;;;;;;;;;5109686;28;20280;-84
2023/07/07 03:44:39;;;;;;;11.35;7.72;;;;;;;;;;5109334;28;20604;-83
2023/07/07 03:47:06;;;;;;;10.85;8.05;;;;;;;;;;5109566;28;20205;-83
2023/07/07 03:49:34;;;;;;;8.05;6.95;;;;;;;;;;5109744;28;20284;-83
2023/07/07 03:52:01;;;;;;;14.40;7.70;;;;;;;;;;5109663;28;20291;-84
2023/07/07 03:54:27;;;;;;;10.45;7.45;;;;;;;;;;5109340;28;20237;-86
2023/07/07 03:56:54;;;;;;;7.75;7.15;;;;;;;;;;5108972;28;20202;-84
2023/07/07 03:59:21;;;;;;;8.10;6.60;;;;;;;;;;5108705;28;20195;-83
2023/07/07 04:01:48;;;;;;;7.78;7.10;;;;;;;;;;5109530;28;20661;-83
2023/07/07 04:04:15;;;;;;;8.85;7.72;;;;;;;;;;5109766;28;20190;-83
2023/07/07 04:06:43;;;;;;;11.02;7.68;;;;;;;;;;5109316;28;20197;-84
2023/07/07 04:09:10;;;;;;;11.15;7.07;;;;;;;;;;5109645;28;20217;-83
2023/07/07 04:11:37;;;;;;;14.00;7.28;;;;;;;;;;5109502;28;20692;-83
2023/07/07 04:14:04;;;;;;;7.20;6.50;;;;;;;;;;5110259;28;20232;-84
2023/07/07 04:16:31;;;;;;;8.13;7.18;;;;;;;;;;5113327;28;20193;-82
2023/07/07 04:18:57;;;;;;;8.93;6.65;;;;;;;;;;5112906;28;20265;-84
2023/07/07 04:21:25;;;;;;;17.23;12.88;;;;;;;;;;5113145;28;20669;-83
2023/07/07 04:23:54;;;;;;;8.40;7.60;;;;;;;;;;5113654;28;20200;-83
2023/07/07 04:26:21;;;;;;;9.30;7.43;;;;;;;;;;5113138;28;20683;-83
2023/07/07 04:28:48;;;;;;;7.78;7.07;;;;;;;;;;5113171;28;20201;-83
2023/07/07 04:31:16;;;;;;;12.93;7.93;;;;;;;;;;5115046;28;20208;-83
2023/07/07 04:33:42;;;;;;;7.70;7.03;;;;;;;;;;5114429;28;20221;-83
2023/07/07 04:36:09;;;;;;;7.47;6.82;;;;;;;;;;5113226;28;20365;-82
2023/07/07 04:38:36;;;;;;;8.40;6.57;;;;;;;;;;5113399;28;20197;-83
2023/07/07 04:41:09;;;;;;;10.48;7.40;;;;;;;;;;5112703;28;20215;-82
2023/07/07 04:43:36;;;;;;;7.97;6.75;;;;;;;;;;5113088;28;20197;-83
2023/07/07 04:46:04;;;;;;;7.97;7.15;;;;;;;;;;5112265;28;20201;-82
2023/07/07 04:48:31;;;;;;;10.43;7.60;;;;;;;;;;5112820;28;20215;-83
2023/07/07 04:50:58;;;;;;;8.88;7.97;;;;;;;;;;5112251;28;20280;-83
2023/07/07 04:53:28;;;;;;;8.65;7.70;;;;;;;;;;5112587;28;20232;-84
2023/07/07 04:55:55;;;;;;;8.07;7.32;;;;;;;;;;5112637;28;20221;-84
2023/07/07 04:58:25;;;;;;;7.90;6.97;;;;;;;;;;5112370;28;20227;-84
2023/07/07 05:00:52;;;;;;;7.95;7.25;;;;;;;;;;5112367;28;20215;-84
2023/07/07 05:03:19;;;;;;;8.48;7.22;;;;;;;;;;5112004;28;20281;-84
2023/07/07 05:05:46;;;;;;;9.48;7.60;;;;;;;;;;5104178;28;20318;-82
2023/07/07 05:08:12;;;;;;;9.23;7.65;;;;;;;;;;5110452;27;20243;-84
2023/07/07 05:10:39;;;;;;;8.63;7.72;;;;;;;;;;5112820;28;20201;-84
2023/07/07 05:13:05;;;;;;;8.10;7.22;;;;;;;;;;5112398;28;20221;-84
2023/07/07 05:15:33;;;;;;;8.70;7.40;;;;;;;;;;5112328;28;20576;-84
2023/07/07 05:18:00;;;;;;;9.57;7.60;;;;;;;;;;5122756;27;20205;-85
2023/07/07 05:20:27;;;;;;;12.38;8.55;;;;;;;;;;5124874;27;20219;-85
2023/07/07 05:22:54;;;;;;;9.20;7.30;;;;;;;;;;5137563;27;20200;-85
2023/07/07 05:25:20;;;;;;;11.27;8.13;;;;;;;;;;5131424;27;20193;-84
2023/07/07 05:27:47;;;;;;;10.90;7.90;;;;;;;;;;5120126;27;20277;-85
2023/07/07 05:30:13;;;;;;;12.45;8.25;;;;;;;;;;5132089;27;20189;-83
2023/07/07 05:32:41;;;;;;;9.57;8.38;;;;;;;;;;5119123;27;20283;-85
2023/07/07 05:35:08;;;;;;;8.52;7.60;;;;;;;;;;5131486;27;20297;-85
2023/07/07 05:37:35;;;;;;;10.13;7.75;;;;;;;;;;5123389;27;20232;-86
2023/07/07 05:40:02;;;;;;;10.18;8.30;;;;;;;;;;5127820;27;20192;-85
2023/07/07 05:42:29;;;;;;;11.52;8.52;;;;;;;;;;5131713;27;20238;-83
2023/07/07 05:44:58;;;;;;;8.77;7.40;;;;;;;;;;5130995;27;20212;-83
2023/07/07 05:47:24;;;;;;;16.23;8.57;;;;;;;;;;5125052;27;20206;-83
2023/07/07 05:49:54;;;;;;;17.00;8.10;;;;;;;;;;5131488;27;20211;-83
2023/07/07 05:52:22;;;;;;;10.00;8.07;;;;;;;;;;5131293;27;20283;-84
2023/07/07 05:54:51;;;;;;;9.00;8.10;;;;;;;;;;5131035;27;20263;-83
2023/07/07 05:57:18;;;;;;;12.70;8.52;;;;;;;;;;5131767;27;20216;-85
2023/07/07 05:59:45;;;;;;;10.65;8.15;;;;;;;;;;5135379;27;20238;-85
2023/07/07 06:02:12;;;;;;;11.00;8.02;;;;;;;;;;5133820;27;20268;-85
2023/07/07 06:04:38;;;;;;;10.18;8.25;;;;;;;;;;5103227;28;20263;-83
2023/07/07 06:07:07;;;;;;;8.35;7.45;;;;;;;;;;5099895;28;20227;-85
2023/07/07 06:09:34;;;;;;;11.18;7.78;;;;;;;;;;5110802;28;20608;-85
2023/07/07 06:12:01;;;;;;;8.05;7.25;;;;;;;;;;5110097;28;20278;-83
2023/07/07 06:14:27;;;;;;;10.63;8.02;;;;;;;;;;5110411;28;20701;-83
2023/07/07 06:16:54;;;;;;;9.02;7.68;;;;;;;;;;5111003;28;20323;-84
2023/07/07 06:19:20;;;;;;;17.95;8.98;;;;;;;;;;5109628;28;20205;-84
2023/07/07 06:21:47;;;;;;;14.15;8.07;;;;;;;;;;5112360;28;20237;-85
2023/07/07 06:24:15;;;;;;;8.07;7.18;;;;;;;;;;5111276;28;20536;-83
2023/07/07 06:26:42;;;;;;;8.63;7.72;;;;;;;;;;5111373;28;20553;-83
2023/07/07 06:29:08;;;;;;;10.27;8.27;;;;;;;;;;5110592;28;20202;-84
2023/07/07 06:31:35;;;;;;;8.27;7.47;;;;;;;;;;5110494;28;20501;-84
2023/07/07 06:34:02;;;;;;;10.45;7.65;;;;;;;;;;5110207;28;20220;-83
2023/07/07 06:36:28;;;;;;;10.57;6.93;;;;;;;;;;5110342;28;20209;-84
2023/07/07 06:38:55;;;;;;;10.93;7.22;;;;;;;;;;5109991;28;20258;-83
2023/07/07 06:41:24;;;;;;;13.07;7.93;;;;;;;;;;5110424;28;20198;-84
2023/07/07 06:43:53;;;;;;;10.57;7.80;;;;;;;;;;5109978;28;20208;-84
2023/07/07 06:46:23;;;;;;;8.25;7.18;;;;;;;;;;5110432;28;20189;-85
2023/07/07 06:48:49;;;;;;;11.70;7.43;;;;;;;;;;5081750;28;20641;-83
2023/07/07 06:51:16;;;;;;;10.55;7.43;;;;;;;;;;5089479;28;20205;-85
2023/07/07 06:53:42;;;;;;;14.25;8.20;;;;;;;;;;5089141;28;20225;-84
2023/07/07 06:56:09;;;;;;;9.05;7.20;;;;;;;;;;5089967;28;20564;-86
2023/07/07 06:58:38;;;;;;;8.55;7.20;;;;;;;;;;5091428;28;20271;-86
2023/07/07 07:01:04;;;;;;;8.35;7.10;;;;;;;;;;5110849;28;20339;-85
2023/07/07 07:03:32;;;;;;;7.28;6.57;;;;;;;;;;5123066;28;20229;-86
2023/07/07 07:05:59;;;;;;;8.75;6.22;;;;;;;;;;5111792;28;20704;-87
2023/07/07 07:08:27;;;;;;;9.23;6.80;;;;;;;;;;5110490;28;20716;-86
2023/07/07 07:10:53;;;;;;;10.38;7.18;;;;;;;;;;5110218;28;20223;-86
2023/07/07 07:13:20;;;;;;;10.52;7.13;;;;;;;;;;5109633;28;20201;-87
2023/07/07 07:15:48;;;;;;;10.02;7.90;;;;;;;;;;5109846;28;20236;-86
2023/07/07 07:18:15;;;;;;;9.55;7.50;;;;;;;;;;5109575;28;20197;-83
2023/07/07 07:20:42;;;;;;;8.80;7.30;;;;;;;;;;5109597;28;20197;-84
2023/07/07 07:23:10;;;;;;;8.75;7.85;;;;;;;;;;5109948;28;20243;-85
2023/07/07 07:25:36;;;;;;;7.18;6.30;;;;;;;;;;5109482;28;20210;-86
2023/07/07 07:28:03;;;;;;;8.43;6.93;;;;;;;;;;5109589;28;20212;-86
2023/07/07 07:30:30;;;;;;;7.68;6.43;;;;;;;;;;5111344;28;20208;-85
2023/07/07 07:32:59;;;;;;;8.35;6.72;;;;;;;;;;5129847;28;20201;-84
2023/07/07 07:35:25;;;;;;;9.40;7.00;;;;;;;;;;5126461;28;20278;-84
2023/07/07 07:37:52;;;;;;;7.45;6.70;;;;;;;;;;5129421;28;20192;-85
2023/07/07 07:40:22;;;;;;;6.50;5.90;;;;;;;;;;5131787;28;20333;-85
2023/07/07 07:42:49;;;;;;;9.10;6.10;;;;;;;;;;5115062;28;20242;-85
2023/07/07 07:45:18;;;;;;;8.02;6.20;;;;;;;;;;5120228;28;20224;-85
2023/07/07 07:47:45;;;;;;;16.90;8.18;;;;;;;;;;5130728;28;20289;-85
2023/07/07 07:50:14;;;;;;;13.18;7.50;;;;;;;;;;5133462;27;20385;-85
2023/07/07 07:52:41;;;;;;;8.50;6.72;;;;;;;;;;5135366;27;20232;-84
2023/07/07 07:55:09;;;;;;;9.75;7.85;;;;;;;;;;5138115;27;20225;-85
2023/07/07 07:57:36;;;;;;;7.57;6.88;;;;;;;;;;5142305;27;20280;-84
2023/07/07 08:00:04;;;;;;;6.88;6.25;;;;;;;;;;5136535;27;20281;-83
2023/07/07 08:02:31;;;;;;;6.60;6.10;;;;;;;;;;5131902;27;20632;-82
2023/07/07 08:04:58;;;;;;;7.00;6.38;;;;;;;;;;5137247;27;20223;-83
2023/07/07 08:07:26;;;;;;;10.20;6.47;;;;;;;;;;5139585;27;20227;-83
2023/07/07 08:09:53;;;;;;;6.85;6.07;;;;;;;;;;5133128;27;20251;-83
2023/07/07 08:12:20;;;;;;;16.85;5.72;;;;;;;;;;5132888;27;20266;-83
2023/07/07 08:14:46;;;;;;;7.50;6.35;;;;;;;;;;5128712;27;20251;-83
2023/07/07 08:17:14;;;;;;;5.95;5.50;;;;;;;;;;5133533;27;20274;-86
2023/07/07 08:19:41;;;;;;;8.43;5.82;;;;;;;;;;5127310;27;20680;-86
2023/07/07 08:22:09;;;;;;;6.00;5.57;;;;;;;;;;5127352;27;20677;-85
2023/07/07 08:24:38;;;;;;;6.30;5.80;;;;;;;;;;5124150;27;20710;-85
2023/07/07 08:27:05;;;;;;;12.05;6.38;;;;;;;;;;5132855;27;20285;-86
2023/07/07 08:29:32;;;;;;;8.00;5.80;;;;;;;;;;5131754;27;20715;-84
2023/07/07 08:31:59;;;;;;;6.93;6.25;;;;;;;;;;5132591;27;20231;-85
2023/07/07 08:34:26;;;;;;;8.75;6.07;;;;;;;;;;5132599;27;20248;-85
2023/07/07 08:36:59;;;;;;;6.43;5.93;;;;;;;;;;5132937;27;20485;-85
2023/07/07 08:39:27;;;;;;;6.13;5.63;;;;;;;;;;5131411;27;20240;-84
2023/07/07 08:41:59;;;;;;;6.10;5.60;;;;;;;;;;5113627;27;20328;-85
2023/07/07 08:44:27;;;;;;;7.05;6.22;;;;;;;;;;5126612;27;20224;-84
2023/07/07 08:47:02;;;;;;;8.35;6.00;;;;;;;;;;5132014;27;20228;-87
2023/07/07 08:49:32;;;;;;;6.35;5.95;;;;;;;;;;5131967;27;20216;-85
2023/07/07 08:52:02;;;;;;;6.60;6.00;;;;;;;;;;5132309;27;20706;-86
2023/07/07 08:54:31;;;;;;;6.95;5.88;;;;;;;;;;5132054;27;20627;-86
2023/07/07 08:57:03;;;;;;;6.22;5.75;;;;;;;;;;5138195;27;20242;-85
2023/07/07 08:59:36;;;;;;;6.07;5.68;;;;;;;;;;5135555;27;20540;-85
2023/07/07 09:02:07;;;;;;;7.50;6.80;;;;;;;;;;5135290;27;20255;-84
2023/07/07 09:04:38;;;;;;;7.15;6.50;;;;;;;;;;5137200;27;20219;-85
2023/07/07 09:07:15;;;;;;;11.68;6.00;;;;;;;;;;5136767;27;20737;-86
2023/07/07 09:09:59;;;;;;;6.43;5.75;;;;;;;;;;5134970;27;20220;-85
2023/07/07 09:12:32;;;;;;;5.75;5.25;;;;;;;;;;5119994;27;20223;-85
2023/07/07 09:15:00;;;;;;;6.43;5.82;;;;;;;;;;5134067;27;20299;-85
2023/07/07 09:17:30;;;;;;;7.60;6.80;;;;;;;;;;5133158;27;20231;-86
2023/07/07 09:19:58;;;;;;;6.82;6.13;;;;;;;;;;5132470;27;20302;-87
2023/07/07 09:22:27;;;;;;;6.75;6.15;;;;;;;;;;5135040;27;20317;-85
2023/07/07 09:24:58;;;;;;;6.97;5.93;;;;;;;;;;5132101;27;20216;-87
2023/07/07 09:27:27;;;;;;;8.65;6.03;;;;;;;;;;5121187;27;20248;-87
2023/07/07 09:30:00;;;;;;;6.40;5.85;;;;;;;;;;5118943;27;20917;-87
2023/07/07 09:32:27;;;;;;;6.32;5.82;;;;;;;;;;5134760;27;20216;-86
2023/07/07 09:34:56;;;;;;;6.05;5.55;;;;;;;;;;5134902;27;20228;-88
2023/07/07 09:37:29;;;;;;;7.60;5.82;;;;;;;;;;5134015;27;20231;-86
2023/07/07 09:40:12;;;;;;;6.07;5.57;;;;;;;;;;5127017;27;20224;-87
2023/07/07 09:42:44;;;;;;;5.88;5.28;;;;;;;;;;5131245;27;20211;-86
2023/07/07 09:45:19;;;;;;;5.30;4.90;;;;;;;;;;5131760;27;20224;-85
2023/07/07 09:47:48;;;;;;;5.63;5.13;;;;;;;;;;5134578;27;20215;-88
2023/07/07 09:50:19;;;;;;;6.05;5.55;;;;;;;;;;5134697;27;20315;-87
2023/07/07 09:53:08;;;;;;;7.35;6.20;;;;;;;;;;5131279;27;20559;-88
2023/07/07 09:55:36;;;;;;;6.25;5.30;;;;;;;;;;5131257;27;20507;-87
2023/07/07 09:58:05;;;;;;;11.20;5.13;;;;;;;;;;5114738;27;20273;-87
2023/07/07 10:00:35;;;;;;;5.88;5.38;;;;;;;;;;5113350;28;20221;-86
2023/07/07 10:03:03;;;;;;;6.30;5.70;;;;;;;;;;5100389;28;20245;-86
2023/07/07 10:05:34;;;;;;;5.93;5.32;;;;;;;;;;5090093;28;20311;-87
2023/07/07 10:08:01;;;;;;;6.70;5.55;;;;;;;;;;5090826;28;20288;-88
2023/07/07 10:10:29;;;;;;;6.47;5.88;;;;;;;;;;5089761;28;20225;-85
2023/07/07 10:12:56;;;;;;;7.53;5.47;;;;;;;;;;5092642;28;20287;-86
2023/07/07 10:15:31;;;;;;;5.80;5.20;;;;;;;;;;5092208;28;20233;-85
2023/07/07 10:18:01;;;;;;;14.93;5.38;;;;;;;;;;5096072;28;20227;-85
2023/07/07 10:20:28;;;;;;;6.47;5.38;;;;;;;;;;5115342;28;20256;-86
2023/07/07 10:22:55;;;;;;;5.68;5.20;;;;;;;;;;5112852;28;20227;-85
2023/07/07 10:25:22;;;;;;;7.45;5.03;;;;;;;;;;5114220;28;20739;-86
2023/07/07 10:27:50;;;;;;;5.88;4.60;;;;;;;;;;5114024;28;20208;-87
2023/07/07 10:30:16;;;;;;;5.35;4.90;;;;;;;;;;5113744;28;20410;-86
2023/07/07 10:32:44;;;;;;;4.95;4.57;;;;;;;;;;5115202;28;20660;-86
2023/07/07 10:35:17;;;;;;;5.40;4.93;;;;;;;;;;5114673;28;20221;-86
2023/07/07 10:37:44;;;;;;;7.57;4.40;;;;;;;;;;5115421;28;20604;-87
2023/07/07 10:40:13;;;;;;;5.15;4.85;;;;;;;;;;5115329;28;20204;-86
2023/07/07 10:42:40;;;;;;;5.13;4.70;;;;;;;;;;5118139;28;20209;-85
2023/07/07 10:45:08;;;;;;;5.47;5.05;;;;;;;;;;5123093;28;20689;-86
2023/07/07 10:47:35;;;;;;;5.78;5.25;;;;;;;;;;5122207;28;20212;-85
2023/07/07 10:50:03;;;;;;;5.65;5.25;;;;;;;;;;5128167;28;20289;-85
2023/07/07 10:52:39;;;;;;;7.05;4.88;;;;;;;;;;5128126;28;20201;-86
2023/07/07 10:55:08;;;;;;;5.78;5.25;;;;;;;;;;5134322;28;20204;-86
2023/07/07 10:57:41;;;;;;;12.30;5.18;;;;;;;;;;5122509;28;20204;-85
2023/07/07 11:00:26;;;;;;;4.78;4.38;;;;;;;;;;5113361;28;20198;-87
2023/07/07 11:03:01;;;;;;;10.10;5.60;;;;;;;;;;5118668;27;20220;-85
2023/07/07 11:05:33;;;;;;;6.13;5.25;;;;;;;;;;5132871;27;20222;-87
2023/07/07 11:08:06;;;;;;;5.60;5.05;;;;;;;;;;5135956;27;20622;-86
2023/07/07 11:10:41;;;;;;;5.30;4.80;;;;;;;;;;5134256;27;20212;-87
2023/07/07 11:13:12;;;;;;;7.25;4.97;;;;;;;;;;5137238;27;20212;-86
2023/07/07 11:15:43;;;;;;;12.75;5.90;;;;;;;;;;5138197;27;20217;-85
2023/07/07 11:18:21;;;;;;;5.22;4.80;;;;;;;;;;5136117;27;20565;-86
2023/07/07 11:20:58;;;;;;;5.35;4.93;;;;;;;;;;5135476;27;20201;-87
2023/07/07 11:23:38;;;;;;;7.38;5.88;;;;;;;;;;5133504;27;20578;-87
2023/07/07 11:26:11;;;;;;;6.47;5.38;;;;;;;;;;5136516;27;20188;-86
2023/07/07 11:28:42;;;;;;;5.53;5.03;;;;;;;;;;5136389;27;20192;-86
2023/07/07 11:31:21;;;;;;;5.90;5.40;;;;;;;;;;5135021;28;20181;-88
2023/07/07 11:33:54;;;;;;;6.75;5.88;;;;;;;;;;5135283;28;20192;-86
2023/07/07 11:36:31;;;;;;;5.10;4.68;;;;;;;;;;5134652;28;20281;-87
2023/07/07 11:39:08;;;;;;;4.38;3.80;;;;;;;;;;5134782;28;20189;-87
2023/07/07 11:41:45;;;;;;;18.02;3.30;;;;;;;;;;5136037;28;20265;-87
2023/07/07 11:44:35;;;;;;;2.97;2.78;;;;;;;;;;5135812;28;20196;-87
2023/07/07 11:47:26;;;;;;;3.42;3.05;;;;;;;;;;5140978;28;20252;-87
2023/07/07 11:50:05;;;;;;;3.20;3.00;;;;;;;;;;5119066;28;20224;-86
2023/07/07 11:52:37;;;;;;;2.88;2.67;;;;;;;;;;5134977;28;20242;-87
2023/07/07 11:55:16;;;;;;;3.50;3.30;;;;;;;;;;5134886;28;20217;-86
2023/07/07 11:57:52;;;;;;;4.55;3.95;;;;;;;;;;5135485;28;20637;-86
2023/07/07 12:00:25;;;;;;;3.20;3.05;;;;;;;;;;5136009;28;20203;-85
2023/07/07 12:02:54;;;;;;;5.05;3.47;;;;;;;;;;5122384;28;20237;-87
2023/07/07 12:05:25;;;;;;;3.30;3.08;;;;;;;;;;5113353;28;20242;-86
2023/07/07 12:07:54;;;;;;;3.10;2.88;;;;;;;;;;5112301;28;20193;-86
2023/07/07 12:10:25;;;;;;;5.35;4.07;;;;;;;;;;5113258;28;20254;-86
2023/07/07 12:12:55;;;;;;;3.47;3.13;;;;;;;;;;5114329;28;20747;-87
2023/07/07 12:15:25;;;;;;;6.13;3.50;;;;;;;;;;5115092;28;20284;-86
2023/07/07 12:17:56;;;;;;;3.38;3.17;;;;;;;;;;5116071;28;20261;-87
2023/07/07 12:20:25;;;;;;;4.60;3.63;;;;;;;;;;5115253;28;20208;-86
2023/07/07 12:22:52;;;;;;;3.90;2.83;;;;;;;;;;5114583;28;20194;-87
2023/07/07 12:25:23;;;;;;;3.80;3.55;;;;;;;;;;5124399;28;20280;-86
2023/07/07 12:27:51;;;;;;;3.97;3.50;;;;;;;;;;5116443;28;20198;-86
2023/07/07 12:30:21;;;;;;;4.90;3.50;;;;;;;;;;5118403;28;20284;-86
2023/07/07 12:32:48;;;;;;;8.00;3.72;;;;;;;;;;5119080;28;20201;-86
2023/07/07 12:35:16;;;;;;;4.03;3.63;;;;;;;;;;5118798;28;20193;-87
2023/07/07 12:37:43;;;;;;;3.97;3.45;;;;;;;;;;5118593;28;20224;-86
2023/07/07 12:40:16;;;;;;;4.40;4.10;;;;;;;;;;5120547;28;20275;-85
2023/07/07 12:42:45;;;;;;;4.38;4.00;;;;;;;;;;5120055;28;20282;-85
2023/07/07 12:45:18;;;;;;;4.53;3.50;;;;;;;;;;5118875;28;20378;-87
2023/07/07 12:47:47;;;;;;;3.90;3.60;;;;;;;;;;5118866;28;20189;-86
2023/07/07 12:50:23;;;;;;;5.32;4.20;;;;;;;;;;5116947;28;20220;-86
2023/07/07 12:52:51;;;;;;;3.75;3.45;;;;;;;;;;5117233;28;20223;-88
2023/07/07 12:55:24;;;;;;;3.60;3.30;;;;;;;;;;5116137;28;20583;-86
2023/07/07 12:58:00;;;;;;;4.28;3.88;;;;;;;;;;5118183;28;20213;-86
2023/07/07 13:00:31;;;;;;;4.70;3.83;;;;;;;;;;5117889;28;20304;-86
2023/07/07 13:03:02;;;;;;;4.05;3.75;;;;;;;;;;5127282;27;20297;-88
2023/07/07 13:05:32;;;;;;;4.00;3.60;;;;;;;;;;5138712;27;20193;-87
2023/07/07 13:07:59;;;;;;;3.33;3.13;;;;;;;;;;5139374;27;20231;-87
2023/07/07 13:10:34;;;;;;;10.10;3.28;;;;;;;;;;5135031;27;20617;-87
2023/07/07 13:13:18;;;;;;;3.80;3.47;;;;;;;;;;5136339;27;20212;-86
2023/07/07 13:15:45;;;;;;;3.13;2.75;;;;;;;;;;5136825;27;20229;-88
2023/07/07 13:18:12;;;;;;;4.90;3.53;;;;;;;;;;5137261;27;20228;-87
2023/07/07 13:20:41;;;;;;;5.15;3.60;;;;;;;;;;5137687;27;20193;-86
2023/07/07 13:23:13;;;;;;;11.05;3.55;;;;;;;;;;5137574;27;20197;-88
2023/07/07 13:25:45;;;;;;;3.47;3.17;;;;;;;;;;5138017;27;20265;-85
2023/07/07 13:28:15;;;;;;;3.13;2.75;;;;;;;;;;5138628;27;20196;-87
2023/07/07 13:30:43;;;;;;;3.28;3.08;;;;;;;;;;5138250;27;20193;-86
2023/07/07 13:33:13;;;;;;;3.55;3.25;;;;;;;;;;5139845;27;20298;-86
2023/07/07 13:35:41;;;;;;;7.80;3.30;;;;;;;;;;5139935;27;20204;-86
2023/07/07 13:38:09;;;;;;;11.93;3.90;;;;;;;;;;5136510;27;20196;-87
2023/07/07 13:40:37;;;;;;;4.25;3.92;;;;;;;;;;5136005;27;20203;-87
2023/07/07 13:43:05;;;;;;;3.20;3.00;;;;;;;;;;5133600;27;20681;-86
2023/07/07 13:45:35;;;;;;;4.20;3.88;;;;;;;;;;5133399;27;20197;-87
2023/07/07 13:48:09;;;;;;;3.05;2.85;;;;;;;;;;5133697;27;20609;-87
2023/07/07 13:50:37;;;;;;;4.93;3.33;;;;;;;;;;5134046;27;20224;-86
2023/07/07 13:53:05;;;;;;;3.60;3.05;;;;;;;;;;5132775;27;20197;-86
2023/07/07 13:55:34;;;;;;;3.47;3.15;;;;;;;;;;5132578;27;20201;-88
2023/07/07 13:58:02;;;;;;;3.90;3.30;;;;;;;;;;5132768;27;20251;-88
2023/07/07 14:00:30;;;;;;;5.03;3.47;;;;;;;;;;5132839;27;20220;-86
2023/07/07 14:03:00;;;;;;;3.22;3.05;;;;;;;;;;5136089;27;20232;-86
2023/07/07 14:05:28;;;;;;;4.88;3.50;;;;;;;;;;5134434;27;20672;-86
2023/07/07 14:07:54;;;;;;;3.92;3.47;;;;;;;;;;5136000;27;20201;-87
2023/07/07 14:10:27;;;;;;;5.63;3.58;;;;;;;;;;5133913;27;20196;-86
2023/07/07 14:12:54;;;;;;;3.78;2.85;;;;;;;;;;5132445;27;20228;-87
2023/07/07 14:15:23;;;;;;;4.45;3.13;;;;;;;;;;5132687;27;20284;-87
2023/07/07 14:17:51;;;;;;;3.65;3.38;;;;;;;;;;5134129;27;20231;-87
2023/07/07 14:20:22;;;;;;;3.45;3.25;;;;;;;;;;5133931;27;20642;-86
2023/07/07 14:22:49;;;;;;;7.45;3.50;;;;;;;;;;5137524;27;20197;-89
2023/07/07 14:25:17;;;;;;;4.70;4.00;;;;;;;;;;5135654;27;20204;-87
2023/07/07 14:27:45;;;;;;;4.63;4.32;;;;;;;;;;5140522;27;20197;-87
2023/07/07 14:30:16;;;;;;;3.95;3.63;;;;;;;;;;5139261;27;20646;-85
2023/07/07 14:32:44;;;;;;;9.20;4.10;;;;;;;;;;5137506;27;20196;-88
2023/07/07 14:35:15;;;;;;;5.05;4.55;;;;;;;;;;5140002;27;20260;-87
2023/07/07 14:37:49;;;;;;;6.57;3.75;;;;;;;;;;5143612;27;20285;-86
2023/07/07 14:40:27;;;;;;;4.15;3.85;;;;;;;;;;5145400;27;20220;-86
2023/07/07 14:42:55;;;;;;;4.75;4.35;;;;;;;;;;5154401;27;20197;-87
2023/07/07 14:45:26;;;;;;;6.20;4.47;;;;;;;;;;5148356;27;20234;-86
2023/07/07 14:47:54;;;;;;;4.63;4.22;;;;;;;;;;5145066;27;20205;-86
2023/07/07 14:50:21;;;;;;;7.63;4.65;;;;;;;;;;5140359;27;20226;-84
2023/07/07 14:52:53;;;;;;;8.45;4.70;;;;;;;;;;5138828;27;20197;-86